sensor_id;sensor_type;location;lat;lon;timestamp;P1;durP1;ratioP1;P2;durP2;ratioP2
10884;SDS011;5495;53.252;10.390;2023-03-23T00:02:12;5.13;;;2.87;;
10884;SDS011;5495;53.252;10.390;2023-03-23T00:04:41;4.37;;;2.43;;
10884;SDS011;5495;53.252;10.390;2023-03-23T00:07:15;6.00;;;2.20;;
10884;SDS011;5495;53.252;10.390;2023-03-23T00:09:48;2.67;;;2.10;;
10884;SDS011;5495;53.252;10.390;2023-03-23T00:12:28;2.73;;;2.30;;
10884;SDS011;5495;53.252;10.390;2023-03-23T00:15:03;5.00;;;2.57;;
10884;SDS011;5495;53.252;10.390;2023-03-23T00:17:43;5.17;;;2.27;;
10884;SDS011;5495;53.252;10.390;2023-03-23T00:20:18;4.27;;;2.50;;
10884;SDS011;5495;53.252;10.390;2023-03-23T00:22:54;6.30;;;2.20;;
10884;SDS011;5495;53.252;10.390;2023-03-23T00:25:31;4.63;;;2.20;;
10884;SDS011;5495;53.252;10.390;2023-03-23T00:27:59;3.10;;;2.27;;
10884;SDS011;5495;53.252;10.390;2023-03-23T00:30:40;4.97;;;3.07;;
10884;SDS011;5495;53.252;10.390;2023-03-23T00:33:28;4.17;;;2.27;;
10884;SDS011;5495;53.252;10.390;2023-03-23T00:36:06;7.03;;;2.53;;
10884;SDS011;5495;53.252;10.390;2023-03-23T00:38:38;5.93;;;2.40;;
10884;SDS011;5495;53.252;10.390;2023-03-23T00:41:27;6.30;;;2.70;;
10884;SDS011;5495;53.252;10.390;2023-03-23T00:44:28;2.90;;;2.57;;
10884;SDS011;5495;53.252;10.390;2023-03-23T00:47:29;3.37;;;2.50;;
10884;SDS011;5495;53.252;10.390;2023-03-23T01:15:51;6.50;;;3.40;;
10884;SDS011;5495;53.252;10.390;2023-03-23T01:23:38;4.23;;;2.90;;
10884;SDS011;5495;53.252;10.390;2023-03-23T01:29:06;5.30;;;3.30;;
10884;SDS011;5495;53.252;10.390;2023-03-23T01:38:48;5.87;;;3.20;;
10884;SDS011;5495;53.252;10.390;2023-03-23T01:47:53;6.97;;;3.80;;
10884;SDS011;5495;53.252;10.390;2023-03-23T01:51:08;7.50;;;3.30;;
10884;SDS011;5495;53.252;10.390;2023-03-23T01:53:53;6.83;;;3.70;;
10884;SDS011;5495;53.252;10.390;2023-03-23T01:56:36;7.30;;;3.60;;
10884;SDS011;5495;53.252;10.390;2023-03-23T01:59:45;6.23;;;3.07;;
10884;SDS011;5495;53.252;10.390;2023-03-23T02:02:45;5.37;;;3.10;;
10884;SDS011;5495;53.252;10.390;2023-03-23T02:05:18;7.37;;;3.57;;
10884;SDS011;5495;53.252;10.390;2023-03-23T02:10:54;7.53;;;4.07;;
10884;SDS011;5495;53.252;10.390;2023-03-23T02:13:43;4.17;;;3.30;;
10884;SDS011;5495;53.252;10.390;2023-03-23T02:16:23;7.20;;;3.80;;
10884;SDS011;5495;53.252;10.390;2023-03-23T02:19:01;7.33;;;3.83;;
10884;SDS011;5495;53.252;10.390;2023-03-23T02:24:47;5.37;;;3.63;;
10884;SDS011;5495;53.252;10.390;2023-03-23T02:27:53;9.03;;;3.60;;
10884;SDS011;5495;53.252;10.390;2023-03-23T02:30:43;6.83;;;3.30;;
10884;SDS011;5495;53.252;10.390;2023-03-23T02:33:24;4.70;;;3.40;;
10884;SDS011;5495;53.252;10.390;2023-03-23T02:36:13;4.43;;;3.20;;
10884;SDS011;5495;53.252;10.390;2023-03-23T02:38:55;4.83;;;3.73;;
10884;SDS011;5495;53.252;10.390;2023-03-23T02:41:28;3.80;;;3.33;;
10884;SDS011;5495;53.252;10.390;2023-03-23T02:44:03;5.10;;;3.73;;
10884;SDS011;5495;53.252;10.390;2023-03-23T02:46:31;5.73;;;3.53;;
10884;SDS011;5495;53.252;10.390;2023-03-23T02:49:00;7.10;;;3.70;;
10884;SDS011;5495;53.252;10.390;2023-03-23T02:51:30;5.03;;;3.47;;
10884;SDS011;5495;53.252;10.390;2023-03-23T02:54:00;4.70;;;3.67;;
10884;SDS011;5495;53.252;10.390;2023-03-23T02:56:29;5.27;;;4.20;;
10884;SDS011;5495;53.252;10.390;2023-03-23T02:58:59;6.23;;;3.93;;
10884;SDS011;5495;53.252;10.390;2023-03-23T03:04:19;5.87;;;3.90;;
10884;SDS011;5495;53.252;10.390;2023-03-23T03:06:51;6.13;;;4.43;;
10884;SDS011;5495;53.252;10.390;2023-03-23T03:09:33;4.80;;;4.10;;
10884;SDS011;5495;53.252;10.390;2023-03-23T03:12:08;4.93;;;4.10;;
10884;SDS011;5495;53.252;10.390;2023-03-23T03:14:39;6.30;;;4.23;;
10884;SDS011;5495;53.252;10.390;2023-03-23T03:17:13;6.40;;;4.17;;
10884;SDS011;5495;53.252;10.390;2023-03-23T03:19:48;6.43;;;4.20;;
10884;SDS011;5495;53.252;10.390;2023-03-23T03:22:25;7.53;;;4.70;;
10884;SDS011;5495;53.252;10.390;2023-03-23T03:24:55;5.53;;;3.93;;
10884;SDS011;5495;53.252;10.390;2023-03-23T03:27:26;4.43;;;3.90;;
10884;SDS011;5495;53.252;10.390;2023-03-23T03:29:57;5.03;;;4.07;;
10884;SDS011;5495;53.252;10.390;2023-03-23T03:32:34;8.57;;;4.83;;
10884;SDS011;5495;53.252;10.390;2023-03-23T03:35:08;5.83;;;4.20;;
10884;SDS011;5495;53.252;10.390;2023-03-23T03:37:39;4.93;;;4.30;;
10884;SDS011;5495;53.252;10.390;2023-03-23T03:40:11;7.80;;;4.30;;
10884;SDS011;5495;53.252;10.390;2023-03-23T03:42:39;7.67;;;4.30;;
10884;SDS011;5495;53.252;10.390;2023-03-23T03:45:11;6.30;;;4.60;;
10884;SDS011;5495;53.252;10.390;2023-03-23T03:47:40;6.40;;;4.40;;
10884;SDS011;5495;53.252;10.390;2023-03-23T03:50:11;5.17;;;4.23;;
10884;SDS011;5495;53.252;10.390;2023-03-23T03:52:39;6.17;;;4.20;;
10884;SDS011;5495;53.252;10.390;2023-03-23T03:55:08;5.77;;;4.20;;
10884;SDS011;5495;53.252;10.390;2023-03-23T03:57:50;5.47;;;4.90;;
10884;SDS011;5495;53.252;10.390;2023-03-23T04:00:19;4.07;;;3.67;;
10884;SDS011;5495;53.252;10.390;2023-03-23T04:02:48;4.77;;;4.27;;
10884;SDS011;5495;53.252;10.390;2023-03-23T04:05:22;13.13;;;5.03;;
10884;SDS011;5495;53.252;10.390;2023-03-23T04:07:59;7.77;;;4.80;;
10884;SDS011;5495;53.252;10.390;2023-03-23T04:10:30;5.83;;;4.70;;
10884;SDS011;5495;53.252;10.390;2023-03-23T04:12:58;5.87;;;4.90;;
10884;SDS011;5495;53.252;10.390;2023-03-23T04:15:25;5.93;;;5.00;;
10884;SDS011;5495;53.252;10.390;2023-03-23T04:17:52;5.03;;;4.20;;
10884;SDS011;5495;53.252;10.390;2023-03-23T04:20:23;6.60;;;5.07;;
10884;SDS011;5495;53.252;10.390;2023-03-23T04:22:51;6.20;;;4.87;;
10884;SDS011;5495;53.252;10.390;2023-03-23T04:25:29;6.63;;;4.67;;
10884;SDS011;5495;53.252;10.390;2023-03-23T04:27:58;6.00;;;4.73;;
10884;SDS011;5495;53.252;10.390;2023-03-23T04:30:26;4.87;;;4.00;;
10884;SDS011;5495;53.252;10.390;2023-03-23T04:33:02;5.60;;;4.50;;
10884;SDS011;5495;53.252;10.390;2023-03-23T04:35:31;5.97;;;4.60;;
10884;SDS011;5495;53.252;10.390;2023-03-23T04:37:59;5.17;;;4.23;;
10884;SDS011;5495;53.252;10.390;2023-03-23T04:40:30;5.20;;;4.07;;
10884;SDS011;5495;53.252;10.390;2023-03-23T04:42:57;8.23;;;4.70;;
10884;SDS011;5495;53.252;10.390;2023-03-23T04:45:30;5.60;;;3.83;;
10884;SDS011;5495;53.252;10.390;2023-03-23T04:55:01;5.87;;;3.80;;
10884;SDS011;5495;53.252;10.390;2023-03-23T04:57:45;5.80;;;3.97;;
10884;SDS011;5495;53.252;10.390;2023-03-23T05:00:12;6.40;;;4.40;;
10884;SDS011;5495;53.252;10.390;2023-03-23T05:02:43;4.37;;;3.37;;
10884;SDS011;5495;53.252;10.390;2023-03-23T05:05:16;3.70;;;3.30;;
10884;SDS011;5495;53.252;10.390;2023-03-23T05:07:46;4.87;;;3.37;;
10884;SDS011;5495;53.252;10.390;2023-03-23T05:10:27;4.33;;;3.67;;
10884;SDS011;5495;53.252;10.390;2023-03-23T05:13:03;5.50;;;3.70;;
10884;SDS011;5495;53.252;10.390;2023-03-23T05:15:30;5.30;;;3.50;;
10884;SDS011;5495;53.252;10.390;2023-03-23T05:17:57;4.03;;;3.07;;
10884;SDS011;5495;53.252;10.390;2023-03-23T05:20:24;4.23;;;3.73;;
10884;SDS011;5495;53.252;10.390;2023-03-23T05:22:55;3.20;;;2.87;;
10884;SDS011;5495;53.252;10.390;2023-03-23T05:25:25;4.90;;;3.77;;
10884;SDS011;5495;53.252;10.390;2023-03-23T05:27:53;4.77;;;3.70;;
10884;SDS011;5495;53.252;10.390;2023-03-23T05:33:20;4.40;;;3.00;;
10884;SDS011;5495;53.252;10.390;2023-03-23T05:35:49;7.33;;;3.00;;
10884;SDS011;5495;53.252;10.390;2023-03-23T05:38:22;4.07;;;2.97;;
10884;SDS011;5495;53.252;10.390;2023-03-23T05:40:52;4.70;;;3.30;;
10884;SDS011;5495;53.252;10.390;2023-03-23T05:43:19;3.87;;;3.10;;
10884;SDS011;5495;53.252;10.390;2023-03-23T05:45:52;3.20;;;2.80;;
10884;SDS011;5495;53.252;10.390;2023-03-23T05:48:21;4.53;;;3.47;;
10884;SDS011;5495;53.252;10.390;2023-03-23T05:50:51;3.13;;;2.70;;
10884;SDS011;5495;53.252;10.390;2023-03-23T05:53:18;5.33;;;2.63;;
10884;SDS011;5495;53.252;10.390;2023-03-23T05:55:46;3.80;;;2.60;;
10884;SDS011;5495;53.252;10.390;2023-03-23T05:58:15;3.30;;;2.80;;
10884;SDS011;5495;53.252;10.390;2023-03-23T06:00:56;4.00;;;2.57;;
10884;SDS011;5495;53.252;10.390;2023-03-23T06:03:32;4.03;;;2.70;;
10884;SDS011;5495;53.252;10.390;2023-03-23T06:06:01;3.10;;;2.77;;
10884;SDS011;5495;53.252;10.390;2023-03-23T06:08:28;3.63;;;2.53;;
10884;SDS011;5495;53.252;10.390;2023-03-23T06:11:00;3.20;;;2.47;;
10884;SDS011;5495;53.252;10.390;2023-03-23T06:13:40;4.93;;;2.53;;
10884;SDS011;5495;53.252;10.390;2023-03-23T06:16:08;3.20;;;2.10;;
10884;SDS011;5495;53.252;10.390;2023-03-23T06:18:44;6.43;;;2.10;;
10884;SDS011;5495;53.252;10.390;2023-03-23T06:21:17;2.67;;;2.20;;
10884;SDS011;5495;53.252;10.390;2023-03-23T06:23:54;2.83;;;2.47;;
10884;SDS011;5495;53.252;10.390;2023-03-23T06:26:26;3.13;;;2.20;;
10884;SDS011;5495;53.252;10.390;2023-03-23T06:29:03;3.77;;;2.50;;
10884;SDS011;5495;53.252;10.390;2023-03-23T06:31:36;3.33;;;2.10;;
10884;SDS011;5495;53.252;10.390;2023-03-23T06:34:10;4.60;;;2.43;;
10884;SDS011;5495;53.252;10.390;2023-03-23T06:36:41;3.90;;;2.53;;
10884;SDS011;5495;53.252;10.390;2023-03-23T06:39:16;2.63;;;2.03;;
10884;SDS011;5495;53.252;10.390;2023-03-23T06:41:58;3.20;;;2.10;;
10884;SDS011;5495;53.252;10.390;2023-03-23T06:44:43;5.37;;;2.33;;
10884;SDS011;5495;53.252;10.390;2023-03-23T06:47:21;3.50;;;1.90;;
10884;SDS011;5495;53.252;10.390;2023-03-23T06:50:05;3.27;;;1.90;;
10884;SDS011;5495;53.252;10.390;2023-03-23T06:52:44;2.40;;;1.80;;
10884;SDS011;5495;53.252;10.390;2023-03-23T06:55:17;2.47;;;2.13;;
10884;SDS011;5495;53.252;10.390;2023-03-23T06:58:09;4.20;;;1.70;;
10884;SDS011;5495;53.252;10.390;2023-03-23T07:01:01;3.13;;;1.90;;
10884;SDS011;5495;53.252;10.390;2023-03-23T07:03:39;1.93;;;1.73;;
10884;SDS011;5495;53.252;10.390;2023-03-23T07:06:21;4.80;;;1.90;;
10884;SDS011;5495;53.252;10.390;2023-03-23T07:09:02;3.00;;;1.80;;
10884;SDS011;5495;53.252;10.390;2023-03-23T07:11:39;2.00;;;1.60;;
10884;SDS011;5495;53.252;10.390;2023-03-23T07:14:09;2.60;;;1.90;;
10884;SDS011;5495;53.252;10.390;2023-03-23T07:16:50;3.03;;;1.70;;
10884;SDS011;5495;53.252;10.390;2023-03-23T07:41:52;2.80;;;1.47;;
10884;SDS011;5495;53.252;10.390;2023-03-23T07:52:59;2.30;;;1.80;;
10884;SDS011;5495;53.252;10.390;2023-03-23T07:55:28;1.47;;;1.37;;
10884;SDS011;5495;53.252;10.390;2023-03-23T07:58:01;3.27;;;1.80;;
10884;SDS011;5495;53.252;10.390;2023-03-23T08:00:31;2.93;;;1.53;;
10884;SDS011;5495;53.252;10.390;2023-03-23T08:04:20;3.07;;;1.70;;
10884;SDS011;5495;53.252;10.390;2023-03-23T08:06:24;3.73;;;1.63;;
10884;SDS011;5495;53.252;10.390;2023-03-23T08:08:55;1.90;;;1.33;;
10884;SDS011;5495;53.252;10.390;2023-03-23T08:11:33;1.93;;;1.63;;
10884;SDS011;5495;53.252;10.390;2023-03-23T08:14:04;2.47;;;1.47;;
10884;SDS011;5495;53.252;10.390;2023-03-23T08:16:41;1.80;;;1.67;;
10884;SDS011;5495;53.252;10.390;2023-03-23T08:22:25;2.50;;;1.97;;
10884;SDS011;5495;53.252;10.390;2023-03-23T08:28:12;1.97;;;1.30;;
10884;SDS011;5495;53.252;10.390;2023-03-23T08:30:54;1.50;;;1.40;;
10884;SDS011;5495;53.252;10.390;2023-03-23T08:34:01;3.37;;;1.63;;
10884;SDS011;5495;53.252;10.390;2023-03-23T08:36:59;2.33;;;1.70;;
10884;SDS011;5495;53.252;10.390;2023-03-23T08:39:57;2.73;;;1.60;;
10884;SDS011;5495;53.252;10.390;2023-03-23T09:32:43;3.67;;;1.27;;
10884;SDS011;5495;53.252;10.390;2023-03-23T09:35:39;2.77;;;1.70;;
10884;SDS011;5495;53.252;10.390;2023-03-23T09:38:08;3.40;;;1.50;;
10884;SDS011;5495;53.252;10.390;2023-03-23T09:40:38;2.07;;;1.50;;
10884;SDS011;5495;53.252;10.390;2023-03-23T09:43:45;1.97;;;1.33;;
10884;SDS011;5495;53.252;10.390;2023-03-23T09:46:38;4.13;;;1.70;;
10884;SDS011;5495;53.252;10.390;2023-03-23T09:49:39;3.63;;;1.83;;
10884;SDS011;5495;53.252;10.390;2023-03-23T09:52:13;4.50;;;1.63;;
10884;SDS011;5495;53.252;10.390;2023-03-23T09:55:21;4.60;;;1.57;;
10884;SDS011;5495;53.252;10.390;2023-03-23T09:58:16;3.50;;;1.47;;
10884;SDS011;5495;53.252;10.390;2023-03-23T10:07:00;3.97;;;1.67;;
10884;SDS011;5495;53.252;10.390;2023-03-23T10:09:45;3.63;;;1.40;;
10884;SDS011;5495;53.252;10.390;2023-03-23T10:12:36;2.63;;;1.23;;
10884;SDS011;5495;53.252;10.390;2023-03-23T10:15:38;6.33;;;1.50;;
10884;SDS011;5495;53.252;10.390;2023-03-23T10:18:43;1.37;;;1.00;;
10884;SDS011;5495;53.252;10.390;2023-03-23T10:31:22;5.03;;;1.20;;
10884;SDS011;5495;53.252;10.390;2023-03-23T10:34:47;9.33;;;1.60;;
10884;SDS011;5495;53.252;10.390;2023-03-23T10:37:34;4.73;;;1.40;;
10884;SDS011;5495;53.252;10.390;2023-03-23T10:43:30;3.77;;;1.20;;
10884;SDS011;5495;53.252;10.390;2023-03-23T10:59:26;7.67;;;1.57;;
10884;SDS011;5495;53.252;10.390;2023-03-23T11:09:08;3.77;;;1.30;;
10884;SDS011;5495;53.252;10.390;2023-03-23T11:15:34;3.57;;;1.33;;
10884;SDS011;5495;53.252;10.390;2023-03-23T11:27:25;4.67;;;1.40;;
10884;SDS011;5495;53.252;10.390;2023-03-23T11:30:09;2.67;;;1.40;;
10884;SDS011;5495;53.252;10.390;2023-03-23T11:43:45;4.03;;;1.27;;
10884;SDS011;5495;53.252;10.390;2023-03-23T11:46:20;4.10;;;1.10;;
10884;SDS011;5495;53.252;10.390;2023-03-23T11:49:14;3.57;;;1.27;;
10884;SDS011;5495;53.252;10.390;2023-03-23T11:52:15;4.13;;;1.30;;
10884;SDS011;5495;53.252;10.390;2023-03-23T11:58:34;3.33;;;1.40;;
10884;SDS011;5495;53.252;10.390;2023-03-23T12:24:02;4.67;;;1.40;;
10884;SDS011;5495;53.252;10.390;2023-03-23T13:06:57;3.87;;;1.50;;
10884;SDS011;5495;53.252;10.390;2023-03-23T13:14:08;4.70;;;1.73;;
10884;SDS011;5495;53.252;10.390;2023-03-23T13:32:47;5.13;;;1.50;;
10884;SDS011;5495;53.252;10.390;2023-03-23T13:35:49;3.53;;;1.40;;
10884;SDS011;5495;53.252;10.390;2023-03-23T13:59:28;1.60;;;1.07;;
10884;SDS011;5495;53.252;10.390;2023-03-23T14:02:29;1.63;;;0.80;;
10884;SDS011;5495;53.252;10.390;2023-03-23T14:05:33;1.67;;;0.70;;
10884;SDS011;5495;53.252;10.390;2023-03-23T14:14:46;1.13;;;0.77;;
10884;SDS011;5495;53.252;10.390;2023-03-23T14:17:40;2.10;;;0.80;;
10884;SDS011;5495;53.252;10.390;2023-03-23T14:20:45;1.20;;;0.90;;
10884;SDS011;5495;53.252;10.390;2023-03-23T14:23:47;1.30;;;0.90;;
10884;SDS011;5495;53.252;10.390;2023-03-23T14:27:02;0.97;;;0.70;;
10884;SDS011;5495;53.252;10.390;2023-03-23T14:30:05;1.10;;;0.70;;
10884;SDS011;5495;53.252;10.390;2023-03-23T14:33:19;2.03;;;0.90;;
10884;SDS011;5495;53.252;10.390;2023-03-23T14:36:11;1.70;;;0.83;;
10884;SDS011;5495;53.252;10.390;2023-03-23T15:07:26;1.30;;;0.83;;
10884;SDS011;5495;53.252;10.390;2023-03-23T15:17:23;1.83;;;0.97;;
10884;SDS011;5495;53.252;10.390;2023-03-23T15:36:25;3.37;;;1.20;;
10884;SDS011;5495;53.252;10.390;2023-03-23T15:39:44;1.83;;;0.87;;
10884;SDS011;5495;53.252;10.390;2023-03-23T15:48:11;2.37;;;0.90;;
10884;SDS011;5495;53.252;10.390;2023-03-23T17:52:42;3.53;;;1.13;;
10884;SDS011;5495;53.252;10.390;2023-03-23T17:55:34;2.70;;;1.30;;
10884;SDS011;5495;53.252;10.390;2023-03-23T18:01:34;4.83;;;1.83;;
10884;SDS011;5495;53.252;10.390;2023-03-23T18:04:33;5.50;;;2.00;;
10884;SDS011;5495;53.252;10.390;2023-03-23T18:57:33;2.60;;;1.07;;
10884;SDS011;5495;53.252;10.390;2023-03-23T19:39:00;1.20;;;1.10;;
10884;SDS011;5495;53.252;10.390;2023-03-23T19:42:27;1.90;;;1.40;;
10884;SDS011;5495;53.252;10.390;2023-03-23T19:45:49;1.50;;;1.23;;
10884;SDS011;5495;53.252;10.390;2023-03-23T20:04:52;2.93;;;2.10;;
10884;SDS011;5495;53.252;10.390;2023-03-23T20:17:54;2.90;;;2.10;;
10884;SDS011;5495;53.252;10.390;2023-03-23T20:24:25;3.70;;;2.30;;
10884;SDS011;5495;53.252;10.390;2023-03-23T20:30:30;2.63;;;2.10;;
10884;SDS011;5495;53.252;10.390;2023-03-23T20:33:18;3.73;;;2.30;;
10884;SDS011;5495;53.252;10.390;2023-03-23T20:36:10;3.37;;;2.73;;
10884;SDS011;5495;53.252;10.390;2023-03-23T20:49:02;3.77;;;2.63;;
10884;SDS011;5495;53.252;10.390;2023-03-23T21:07:06;4.33;;;2.30;;
10884;SDS011;5495;53.252;10.390;2023-03-23T21:09:41;4.77;;;2.20;;
10884;SDS011;5495;53.252;10.390;2023-03-23T21:30:02;5.63;;;2.87;;
10884;SDS011;5495;53.252;10.390;2023-03-23T21:39:44;3.67;;;2.70;;
10884;SDS011;5495;53.252;10.390;2023-03-23T22:03:28;3.30;;;2.60;;
10884;SDS011;5495;53.252;10.390;2023-03-23T22:12:12;3.90;;;2.53;;
10884;SDS011;5495;53.252;10.390;2023-03-23T22:27:10;3.90;;;2.63;;
10884;SDS011;5495;53.252;10.390;2023-03-23T22:30:15;4.53;;;2.33;;
10884;SDS011;5495;53.252;10.390;2023-03-23T22:32:59;3.20;;;2.47;;
10884;SDS011;5495;53.252;10.390;2023-03-23T22:40:17;3.17;;;2.13;;
10884;SDS011;5495;53.252;10.390;2023-03-23T22:42:28;4.50;;;2.10;;
10884;SDS011;5495;53.252;10.390;2023-03-23T22:48:28;3.17;;;1.80;;
10884;SDS011;5495;53.252;10.390;2023-03-23T22:51:00;4.40;;;2.43;;
10884;SDS011;5495;53.252;10.390;2023-03-23T22:56:23;4.57;;;2.10;;
10884;SDS011;5495;53.252;10.390;2023-03-23T23:05:04;2.50;;;1.80;;
10884;SDS011;5495;53.252;10.390;2023-03-23T23:07:53;3.20;;;1.70;;
10884;SDS011;5495;53.252;10.390;2023-03-23T23:10:40;4.33;;;2.37;;
10884;SDS011;5495;53.252;10.390;2023-03-23T23:16:24;4.63;;;2.00;;
10884;SDS011;5495;53.252;10.390;2023-03-23T23:19:07;4.73;;;2.37;;
10884;SDS011;5495;53.252;10.390;2023-03-23T23:21:41;4.20;;;2.00;;
10884;SDS011;5495;53.252;10.390;2023-03-23T23:24:41;2.23;;;2.03;;
10884;SDS011;5495;53.252;10.390;2023-03-23T23:27:35;3.67;;;2.03;;
10884;SDS011;5495;53.252;10.390;2023-03-23T23:30:07;2.87;;;1.77;;
10884;SDS011;5495;53.252;10.390;2023-03-23T23:32:52;5.30;;;1.77;;
10884;SDS011;5495;53.252;10.390;2023-03-23T23:35:34;3.17;;;1.60;;
10884;SDS011;5495;53.252;10.390;2023-03-23T23:38:03;4.23;;;2.10;;
10884;SDS011;5495;53.252;10.390;2023-03-23T23:40:53;4.23;;;1.90;;
10884;SDS011;5495;53.252;10.390;2023-03-23T23:43:48;2.13;;;1.70;;
10884;SDS011;5495;53.252;10.390;2023-03-23T23:46:16;3.70;;;1.70;;
10884;SDS011;5495;53.252;10.390;2023-03-23T23:51:39;4.63;;;2.20;;
10884;SDS011;5495;53.252;10.390;2023-03-23T23:56:51;2.23;;;1.60;;
10884;SDS011;5495;53.252;10.390;2023-03-23T23:59:38;2.67;;;1.70;;
